Jonesboro Municipal Airport Jonesboro US
ICAO: KJBR
IATA: JBR
Category: Medium
Scheduled Services: Yes

Elevation: 262 ft
TransAlt. 18000 ft.

Airport Communications:
ASOS:118.525
MEMPHIS CNTR:120.075
CTAF:123.6
RDO:122.2
UNICOM:123

KJBR Zoom In..

If you have problems with the map follow the link
https://www.worldairports.se/pages/airport.php?
ICAO=KJBR

Runways:

(A) RW 05 length 6200 ft width 150 ft
---- / hdg 50

(B) RW 13 length 4099 ft width 150 ft
---- / hdg 135

(C) RW 23 length 6200 ft width 150 ft
ILS 110.15 / hdg 230

(D) RW 31 length 4099 ft width 150 ft
---- / hdg 315

Location; KJBR
Day. 14 / Time. 21.53 Zulu
* Altimeter: 29.85
* Temperature: 11° c. 51.8°f.
* Wind from: 040° Speed 12 kn with Gusts up to 17 kn.
Dewpoint: 11° c.
Visibility: 8 Statute Miles.
Clouds: Overcast 600 ft.

KJBR 142153Z AUTO 04012G17KT 8SM OVC006 11/11 A2985 RMK AO2 LTG DSNT S RAB13E22 SLP106 P0000 T01060106


Wind From 040°
Speed 12 kn.

 
 
jpsmedia.com for Web Design worldairports.se 2018   terms of use